sensor_id;sensor_type;location;lat;lon;timestamp;P1;durP1;ratioP1;P2;durP2;ratioP2
48993;SDS011;34804;49.214;12.276;2023-05-10T00:01:23;10.32;;;5.55;;
48993;SDS011;34804;49.214;12.276;2023-05-10T00:03:50;8.93;;;5.05;;
48993;SDS011;34804;49.214;12.276;2023-05-10T00:06:17;8.77;;;5.53;;
48993;SDS011;34804;49.214;12.276;2023-05-10T00:08:44;9.65;;;5.22;;
48993;SDS011;34804;49.214;12.276;2023-05-10T00:11:11;9.25;;;5.40;;
48993;SDS011;34804;49.214;12.276;2023-05-10T00:13:38;9.48;;;5.30;;
48993;SDS011;34804;49.214;12.276;2023-05-10T00:16:06;11.88;;;6.28;;
48993;SDS011;34804;49.214;12.276;2023-05-10T00:18:33;7.97;;;5.18;;
48993;SDS011;34804;49.214;12.276;2023-05-10T00:21:00;9.23;;;5.32;;
48993;SDS011;34804;49.214;12.276;2023-05-10T00:23:27;12.60;;;5.50;;
48993;SDS011;34804;49.214;12.276;2023-05-10T00:25:54;10.25;;;6.13;;
48993;SDS011;34804;49.214;12.276;2023-05-10T00:28:21;10.45;;;5.78;;
48993;SDS011;34804;49.214;12.276;2023-05-10T00:30:48;8.90;;;5.53;;
48993;SDS011;34804;49.214;12.276;2023-05-10T00:33:14;10.40;;;5.88;;
48993;SDS011;34804;49.214;12.276;2023-05-10T00:35:41;8.60;;;5.88;;
48993;SDS011;34804;49.214;12.276;2023-05-10T00:38:08;8.93;;;5.93;;
48993;SDS011;34804;49.214;12.276;2023-05-10T00:40:35;9.82;;;5.90;;
48993;SDS011;34804;49.214;12.276;2023-05-10T00:43:03;12.52;;;5.95;;
48993;SDS011;34804;49.214;12.276;2023-05-10T00:45:31;11.30;;;5.95;;
48993;SDS011;34804;49.214;12.276;2023-05-10T00:48:01;11.75;;;5.63;;
48993;SDS011;34804;49.214;12.276;2023-05-10T00:50:30;9.00;;;5.88;;
48993;SDS011;34804;49.214;12.276;2023-05-10T00:52:59;7.78;;;5.15;;
48993;SDS011;34804;49.214;12.276;2023-05-10T00:55:26;11.68;;;5.45;;
48993;SDS011;34804;49.214;12.276;2023-05-10T00:57:54;9.18;;;5.10;;
48993;SDS011;34804;49.214;12.276;2023-05-10T01:00:21;7.75;;;4.57;;
48993;SDS011;34804;49.214;12.276;2023-05-10T01:02:49;11.52;;;5.90;;
48993;SDS011;34804;49.214;12.276;2023-05-10T01:05:16;10.07;;;5.55;;
48993;SDS011;34804;49.214;12.276;2023-05-10T01:07:43;9.10;;;5.57;;
48993;SDS011;34804;49.214;12.276;2023-05-10T01:10:10;10.77;;;6.13;;
48993;SDS011;34804;49.214;12.276;2023-05-10T01:12:38;8.52;;;5.70;;
48993;SDS011;34804;49.214;12.276;2023-05-10T01:15:07;9.23;;;5.60;;
48993;SDS011;34804;49.214;12.276;2023-05-10T01:17:35;8.18;;;5.10;;
48993;SDS011;34804;49.214;12.276;2023-05-10T01:20:04;11.05;;;6.10;;
48993;SDS011;34804;49.214;12.276;2023-05-10T01:28:15;10.82;;;5.90;;
48993;SDS011;34804;49.214;12.276;2023-05-10T01:39:20;9.60;;;6.45;;
48993;SDS011;34804;49.214;12.276;2023-05-10T01:41:55;10.40;;;6.30;;
48993;SDS011;34804;49.214;12.276;2023-05-10T01:47:35;7.53;;;5.32;;
48993;SDS011;34804;49.214;12.276;2023-05-10T01:50:15;9.55;;;6.00;;
48993;SDS011;34804;49.214;12.276;2023-05-10T01:52:47;12.13;;;6.40;;
48993;SDS011;34804;49.214;12.276;2023-05-10T01:55:22;10.85;;;6.53;;
48993;SDS011;34804;49.214;12.276;2023-05-10T01:57:53;9.10;;;6.05;;
48993;SDS011;34804;49.214;12.276;2023-05-10T02:00:28;10.73;;;6.38;;
48993;SDS011;34804;49.214;12.276;2023-05-10T02:02:58;12.95;;;6.43;;
48993;SDS011;34804;49.214;12.276;2023-05-10T02:05:28;8.38;;;6.15;;
48993;SDS011;34804;49.214;12.276;2023-05-10T02:07:58;9.55;;;6.07;;
48993;SDS011;34804;49.214;12.276;2023-05-10T02:10:28;9.20;;;6.18;;
48993;SDS011;34804;49.214;12.276;2023-05-10T02:12:55;10.40;;;5.63;;
48993;SDS011;34804;49.214;12.276;2023-05-10T02:15:26;11.70;;;5.70;;
48993;SDS011;34804;49.214;12.276;2023-05-10T02:17:54;9.15;;;5.50;;
48993;SDS011;34804;49.214;12.276;2023-05-10T02:20:23;8.50;;;5.72;;
48993;SDS011;34804;49.214;12.276;2023-05-10T02:22:52;8.77;;;6.25;;
48993;SDS011;34804;49.214;12.276;2023-05-10T02:25:21;9.48;;;6.25;;
48993;SDS011;34804;49.214;12.276;2023-05-10T02:27:49;11.20;;;6.03;;
48993;SDS011;34804;49.214;12.276;2023-05-10T02:30:19;8.38;;;5.85;;
48993;SDS011;34804;49.214;12.276;2023-05-10T02:32:47;8.57;;;6.10;;
48993;SDS011;34804;49.214;12.276;2023-05-10T02:35:16;11.10;;;6.45;;
48993;SDS011;34804;49.214;12.276;2023-05-10T02:37:44;12.60;;;6.07;;
48993;SDS011;34804;49.214;12.276;2023-05-10T02:40:13;9.23;;;6.30;;
48993;SDS011;34804;49.214;12.276;2023-05-10T02:42:41;8.40;;;6.00;;
48993;SDS011;34804;49.214;12.276;2023-05-10T02:45:13;8.73;;;5.15;;
48993;SDS011;34804;49.214;12.276;2023-05-10T02:47:44;15.70;;;6.32;;
48993;SDS011;34804;49.214;12.276;2023-05-10T02:50:11;9.73;;;6.05;;
48993;SDS011;34804;49.214;12.276;2023-05-10T02:52:49;10.50;;;6.05;;
48993;SDS011;34804;49.214;12.276;2023-05-10T02:55:25;8.57;;;6.75;;
48993;SDS011;34804;49.214;12.276;2023-05-10T02:58:00;9.73;;;5.68;;
48993;SDS011;34804;49.214;12.276;2023-05-10T03:00:28;12.10;;;6.70;;
48993;SDS011;34804;49.214;12.276;2023-05-10T03:02:55;8.85;;;6.05;;
48993;SDS011;34804;49.214;12.276;2023-05-10T03:05:22;9.25;;;5.78;;
48993;SDS011;34804;49.214;12.276;2023-05-10T03:07:49;10.32;;;5.57;;
48993;SDS011;34804;49.214;12.276;2023-05-10T03:10:17;8.57;;;5.95;;
48993;SDS011;34804;49.214;12.276;2023-05-10T03:15:58;10.00;;;6.10;;
48993;SDS011;34804;49.214;12.276;2023-05-10T03:18:42;11.20;;;6.43;;
48993;SDS011;34804;49.214;12.276;2023-05-10T03:21:17;10.55;;;6.00;;
48993;SDS011;34804;49.214;12.276;2023-05-10T03:23:47;9.15;;;6.47;;
48993;SDS011;34804;49.214;12.276;2023-05-10T03:26:26;10.38;;;7.07;;
48993;SDS011;34804;49.214;12.276;2023-05-10T03:28:54;9.48;;;6.63;;
48993;SDS011;34804;49.214;12.276;2023-05-10T03:31:23;13.50;;;6.60;;
48993;SDS011;34804;49.214;12.276;2023-05-10T03:33:50;9.82;;;6.30;;
48993;SDS011;34804;49.214;12.276;2023-05-10T03:36:18;9.13;;;5.97;;
48993;SDS011;34804;49.214;12.276;2023-05-10T03:38:45;12.90;;;7.40;;
48993;SDS011;34804;49.214;12.276;2023-05-10T03:41:12;12.73;;;8.52;;
48993;SDS011;34804;49.214;12.276;2023-05-10T03:43:39;15.32;;;9.43;;
48993;SDS011;34804;49.214;12.276;2023-05-10T03:46:05;14.35;;;9.57;;
48993;SDS011;34804;49.214;12.276;2023-05-10T03:48:32;13.70;;;8.57;;
48993;SDS011;34804;49.214;12.276;2023-05-10T03:50:59;12.18;;;8.45;;
48993;SDS011;34804;49.214;12.276;2023-05-10T03:53:26;13.07;;;8.75;;
48993;SDS011;34804;49.214;12.276;2023-05-10T03:55:53;12.63;;;8.75;;
48993;SDS011;34804;49.214;12.276;2023-05-10T03:58:20;14.30;;;8.50;;
48993;SDS011;34804;49.214;12.276;2023-05-10T04:00:48;14.68;;;9.15;;
48993;SDS011;34804;49.214;12.276;2023-05-10T04:03:14;12.27;;;8.93;;
48993;SDS011;34804;49.214;12.276;2023-05-10T04:05:41;13.25;;;8.13;;
48993;SDS011;34804;49.214;12.276;2023-05-10T04:08:08;15.93;;;7.95;;
48993;SDS011;34804;49.214;12.276;2023-05-10T04:10:35;11.43;;;7.97;;
48993;SDS011;34804;49.214;12.276;2023-05-10T04:13:02;8.90;;;6.70;;
48993;SDS011;34804;49.214;12.276;2023-05-10T04:15:29;11.50;;;7.95;;
48993;SDS011;34804;49.214;12.276;2023-05-10T04:17:56;19.40;;;11.50;;
48993;SDS011;34804;49.214;12.276;2023-05-10T04:20:23;21.95;;;13.25;;
48993;SDS011;34804;49.214;12.276;2023-05-10T04:22:49;20.48;;;12.57;;
48993;SDS011;34804;49.214;12.276;2023-05-10T04:25:16;18.90;;;12.23;;
48993;SDS011;34804;49.214;12.276;2023-05-10T04:27:43;18.23;;;12.20;;
48993;SDS011;34804;49.214;12.276;2023-05-10T04:30:10;15.88;;;9.98;;
48993;SDS011;34804;49.214;12.276;2023-05-10T04:32:37;11.73;;;8.65;;
48993;SDS011;34804;49.214;12.276;2023-05-10T04:35:04;14.45;;;7.78;;
48993;SDS011;34804;49.214;12.276;2023-05-10T04:37:31;10.55;;;7.65;;
48993;SDS011;34804;49.214;12.276;2023-05-10T04:39:58;12.13;;;7.50;;
48993;SDS011;34804;49.214;12.276;2023-05-10T04:42:26;12.10;;;7.90;;
48993;SDS011;34804;49.214;12.276;2023-05-10T04:44:52;14.05;;;7.65;;
48993;SDS011;34804;49.214;12.276;2023-05-10T04:47:19;10.93;;;7.00;;
48993;SDS011;34804;49.214;12.276;2023-05-10T04:49:46;10.35;;;6.95;;
48993;SDS011;34804;49.214;12.276;2023-05-10T04:52:13;11.93;;;7.63;;
48993;SDS011;34804;49.214;12.276;2023-05-10T04:54:42;11.68;;;8.20;;
48993;SDS011;34804;49.214;12.276;2023-05-10T04:57:09;14.27;;;8.43;;
48993;SDS011;34804;49.214;12.276;2023-05-10T04:59:36;13.80;;;8.70;;
48993;SDS011;34804;49.214;12.276;2023-05-10T05:02:04;12.73;;;8.20;;
48993;SDS011;34804;49.214;12.276;2023-05-10T05:04:31;11.52;;;8.07;;
48993;SDS011;34804;49.214;12.276;2023-05-10T05:06:58;13.23;;;7.78;;
48993;SDS011;34804;49.214;12.276;2023-05-10T05:09:25;12.10;;;7.35;;
48993;SDS011;34804;49.214;12.276;2023-05-10T05:11:52;11.90;;;8.38;;
48993;SDS011;34804;49.214;12.276;2023-05-10T05:14:18;11.10;;;7.78;;
48993;SDS011;34804;49.214;12.276;2023-05-10T05:16:47;14.20;;;7.95;;
48993;SDS011;34804;49.214;12.276;2023-05-10T05:19:14;11.43;;;8.15;;
48993;SDS011;34804;49.214;12.276;2023-05-10T05:21:41;11.93;;;8.15;;
48993;SDS011;34804;49.214;12.276;2023-05-10T05:24:08;11.65;;;8.20;;
48993;SDS011;34804;49.214;12.276;2023-05-10T05:26:36;12.32;;;8.65;;
48993;SDS011;34804;49.214;12.276;2023-05-10T05:29:03;12.77;;;8.85;;
48993;SDS011;34804;49.214;12.276;2023-05-10T05:31:30;19.13;;;12.88;;
48993;SDS011;34804;49.214;12.276;2023-05-10T05:33:57;18.55;;;11.25;;
48993;SDS011;34804;49.214;12.276;2023-05-10T05:36:23;14.38;;;9.57;;
48993;SDS011;34804;49.214;12.276;2023-05-10T05:38:50;12.80;;;8.95;;
48993;SDS011;34804;49.214;12.276;2023-05-10T05:41:17;11.95;;;8.60;;
48993;SDS011;34804;49.214;12.276;2023-05-10T05:43:44;14.57;;;8.45;;
48993;SDS011;34804;49.214;12.276;2023-05-10T05:46:11;16.00;;;9.85;;
48993;SDS011;34804;49.214;12.276;2023-05-10T05:48:38;14.32;;;9.40;;
48993;SDS011;34804;49.214;12.276;2023-05-10T05:51:04;16.40;;;11.32;;
48993;SDS011;34804;49.214;12.276;2023-05-10T05:53:32;22.27;;;14.10;;
48993;SDS011;34804;49.214;12.276;2023-05-10T05:55:59;26.52;;;15.05;;
48993;SDS011;34804;49.214;12.276;2023-05-10T05:58:26;22.20;;;13.00;;
48993;SDS011;34804;49.214;12.276;2023-05-10T06:00:53;19.80;;;12.45;;
48993;SDS011;34804;49.214;12.276;2023-05-10T06:03:20;19.02;;;11.60;;
48993;SDS011;34804;49.214;12.276;2023-05-10T06:05:47;18.70;;;12.15;;
48993;SDS011;34804;49.214;12.276;2023-05-10T06:08:14;19.15;;;12.43;;
48993;SDS011;34804;49.214;12.276;2023-05-10T06:10:41;16.17;;;11.75;;
48993;SDS011;34804;49.214;12.276;2023-05-10T06:13:08;16.38;;;10.95;;
48993;SDS011;34804;49.214;12.276;2023-05-10T06:15:35;15.10;;;9.55;;
48993;SDS011;34804;49.214;12.276;2023-05-10T06:18:02;18.73;;;9.45;;
48993;SDS011;34804;49.214;12.276;2023-05-10T06:20:29;16.48;;;9.73;;
48993;SDS011;34804;49.214;12.276;2023-05-10T06:22:57;13.88;;;10.00;;
48993;SDS011;34804;49.214;12.276;2023-05-10T06:25:24;14.02;;;9.75;;
48993;SDS011;34804;49.214;12.276;2023-05-10T06:27:51;16.15;;;9.88;;
48993;SDS011;34804;49.214;12.276;2023-05-10T06:30:23;15.30;;;10.10;;
48993;SDS011;34804;49.214;12.276;2023-05-10T06:32:53;19.40;;;11.70;;
48993;SDS011;34804;49.214;12.276;2023-05-10T06:35:21;18.67;;;10.82;;
48993;SDS011;34804;49.214;12.276;2023-05-10T06:37:48;17.83;;;11.27;;
48993;SDS011;34804;49.214;12.276;2023-05-10T06:40:15;12.48;;;9.13;;
48993;SDS011;34804;49.214;12.276;2023-05-10T06:42:43;17.33;;;9.77;;
48993;SDS011;34804;49.214;12.276;2023-05-10T06:45:11;12.00;;;8.38;;
48993;SDS011;34804;49.214;12.276;2023-05-10T06:47:39;14.02;;;8.95;;
48993;SDS011;34804;49.214;12.276;2023-05-10T06:50:06;15.40;;;9.23;;
48993;SDS011;34804;49.214;12.276;2023-05-10T06:52:34;13.68;;;8.77;;
48993;SDS011;34804;49.214;12.276;2023-05-10T06:55:01;15.95;;;8.80;;
48993;SDS011;34804;49.214;12.276;2023-05-10T06:57:29;13.45;;;8.65;;
48993;SDS011;34804;49.214;12.276;2023-05-10T06:59:58;13.48;;;9.88;;
48993;SDS011;34804;49.214;12.276;2023-05-10T07:02:25;19.48;;;12.50;;
48993;SDS011;34804;49.214;12.276;2023-05-10T07:04:52;17.50;;;11.20;;
48993;SDS011;34804;49.214;12.276;2023-05-10T07:07:19;15.93;;;9.00;;
48993;SDS011;34804;49.214;12.276;2023-05-10T07:09:46;12.57;;;8.90;;
48993;SDS011;34804;49.214;12.276;2023-05-10T07:12:13;13.13;;;9.05;;
48993;SDS011;34804;49.214;12.276;2023-05-10T07:14:41;17.27;;;9.43;;
48993;SDS011;34804;49.214;12.276;2023-05-10T07:17:09;12.82;;;8.18;;
48993;SDS011;34804;49.214;12.276;2023-05-10T07:19:36;12.98;;;8.23;;
48993;SDS011;34804;49.214;12.276;2023-05-10T07:22:03;16.05;;;9.68;;
48993;SDS011;34804;49.214;12.276;2023-05-10T07:24:29;13.25;;;8.75;;
48993;SDS011;34804;49.214;12.276;2023-05-10T07:26:57;13.43;;;8.70;;
48993;SDS011;34804;49.214;12.276;2023-05-10T07:29:24;14.27;;;9.18;;
48993;SDS011;34804;49.214;12.276;2023-05-10T07:31:51;13.43;;;8.43;;
48993;SDS011;34804;49.214;12.276;2023-05-10T07:34:18;16.02;;;8.75;;
48993;SDS011;34804;49.214;12.276;2023-05-10T07:36:45;13.68;;;8.88;;
48993;SDS011;34804;49.214;12.276;2023-05-10T07:39:12;11.23;;;8.23;;
48993;SDS011;34804;49.214;12.276;2023-05-10T07:41:49;15.75;;;10.18;;
48993;SDS011;34804;49.214;12.276;2023-05-10T07:44:16;15.88;;;10.88;;
48993;SDS011;34804;49.214;12.276;2023-05-10T07:46:46;16.35;;;12.02;;
48993;SDS011;34804;49.214;12.276;2023-05-10T07:49:14;14.75;;;10.30;;
48993;SDS011;34804;49.214;12.276;2023-05-10T07:51:41;12.90;;;9.50;;
48993;SDS011;34804;49.214;12.276;2023-05-10T07:54:10;15.80;;;9.32;;
48993;SDS011;34804;49.214;12.276;2023-05-10T07:56:38;14.77;;;10.68;;
48993;SDS011;34804;49.214;12.276;2023-05-10T07:59:06;16.45;;;10.18;;
48993;SDS011;34804;49.214;12.276;2023-05-10T08:01:36;11.15;;;8.43;;
48993;SDS011;34804;49.214;12.276;2023-05-10T08:04:03;14.15;;;8.82;;
48993;SDS011;34804;49.214;12.276;2023-05-10T08:06:30;13.43;;;9.52;;
48993;SDS011;34804;49.214;12.276;2023-05-10T08:08:57;13.25;;;8.40;;
48993;SDS011;34804;49.214;12.276;2023-05-10T08:11:24;13.10;;;8.45;;
48993;SDS011;34804;49.214;12.276;2023-05-10T08:13:51;10.77;;;8.30;;
48993;SDS011;34804;49.214;12.276;2023-05-10T08:16:18;12.25;;;8.80;;
48993;SDS011;34804;49.214;12.276;2023-05-10T08:18:46;11.07;;;8.60;;
48993;SDS011;34804;49.214;12.276;2023-05-10T08:21:14;11.43;;;8.15;;
48993;SDS011;34804;49.214;12.276;2023-05-10T08:23:42;10.40;;;7.63;;
48993;SDS011;34804;49.214;12.276;2023-05-10T08:26:10;13.38;;;7.43;;
48993;SDS011;34804;49.214;12.276;2023-05-10T08:28:37;11.23;;;7.38;;
48993;SDS011;34804;49.214;12.276;2023-05-10T08:31:04;11.45;;;7.55;;
48993;SDS011;34804;49.214;12.276;2023-05-10T08:33:31;10.27;;;6.88;;
48993;SDS011;34804;49.214;12.276;2023-05-10T08:35:58;8.75;;;6.60;;
48993;SDS011;34804;49.214;12.276;2023-05-10T08:38:25;9.82;;;7.07;;
48993;SDS011;34804;49.214;12.276;2023-05-10T08:40:53;10.63;;;7.05;;
48993;SDS011;34804;49.214;12.276;2023-05-10T08:43:29;8.90;;;6.45;;
48993;SDS011;34804;49.214;12.276;2023-05-10T08:45:56;8.60;;;6.63;;
48993;SDS011;34804;49.214;12.276;2023-05-10T08:48:27;10.18;;;6.57;;
48993;SDS011;34804;49.214;12.276;2023-05-10T08:50:55;9.45;;;6.53;;
48993;SDS011;34804;49.214;12.276;2023-05-10T08:53:27;11.15;;;6.45;;
48993;SDS011;34804;49.214;12.276;2023-05-10T08:55:56;9.30;;;6.13;;
48993;SDS011;34804;49.214;12.276;2023-05-10T08:58:23;9.00;;;6.20;;
48993;SDS011;34804;49.214;12.276;2023-05-10T09:00:51;8.38;;;5.70;;
48993;SDS011;34804;49.214;12.276;2023-05-10T09:03:19;9.18;;;6.43;;
48993;SDS011;34804;49.214;12.276;2023-05-10T09:05:46;9.23;;;6.30;;
48993;SDS011;34804;49.214;12.276;2023-05-10T09:08:13;8.20;;;6.10;;
48993;SDS011;34804;49.214;12.276;2023-05-10T09:10:43;9.95;;;6.80;;
48993;SDS011;34804;49.214;12.276;2023-05-10T09:13:11;10.20;;;6.45;;
48993;SDS011;34804;49.214;12.276;2023-05-10T09:15:38;9.98;;;7.15;;
48993;SDS011;34804;49.214;12.276;2023-05-10T09:18:05;11.18;;;7.07;;
48993;SDS011;34804;49.214;12.276;2023-05-10T09:20:32;9.93;;;6.97;;
48993;SDS011;34804;49.214;12.276;2023-05-10T09:22:59;11.93;;;8.07;;
48993;SDS011;34804;49.214;12.276;2023-05-10T09:25:26;11.10;;;7.80;;
48993;SDS011;34804;49.214;12.276;2023-05-10T09:27:53;10.90;;;7.43;;
48993;SDS011;34804;49.214;12.276;2023-05-10T09:30:28;10.02;;;7.30;;
48993;SDS011;34804;49.214;12.276;2023-05-10T09:32:56;10.65;;;7.07;;
48993;SDS011;34804;49.214;12.276;2023-05-10T09:35:26;10.05;;;7.60;;
48993;SDS011;34804;49.214;12.276;2023-05-10T09:37:56;8.88;;;6.85;;
48993;SDS011;34804;49.214;12.276;2023-05-10T09:40:29;11.07;;;7.28;;
48993;SDS011;34804;49.214;12.276;2023-05-10T09:45:29;9.48;;;7.13;;
48993;SDS011;34804;49.214;12.276;2023-05-10T09:47:57;9.65;;;7.07;;
48993;SDS011;34804;49.214;12.276;2023-05-10T09:50:25;10.90;;;6.75;;
48993;SDS011;34804;49.214;12.276;2023-05-10T09:52:53;10.50;;;6.68;;
48993;SDS011;34804;49.214;12.276;2023-05-10T09:55:22;10.38;;;7.13;;
48993;SDS011;34804;49.214;12.276;2023-05-10T09:57:58;10.13;;;7.50;;
48993;SDS011;34804;49.214;12.276;2023-05-10T10:00:27;11.27;;;8.32;;
48993;SDS011;34804;49.214;12.276;2023-05-10T10:02:58;14.32;;;9.70;;
48993;SDS011;34804;49.214;12.276;2023-05-10T10:05:29;10.10;;;7.13;;
48993;SDS011;34804;49.214;12.276;2023-05-10T10:07:57;12.70;;;8.70;;
48993;SDS011;34804;49.214;12.276;2023-05-10T10:10:25;10.07;;;7.57;;
48993;SDS011;34804;49.214;12.276;2023-05-10T10:12:53;10.35;;;6.10;;
48993;SDS011;34804;49.214;12.276;2023-05-10T10:15:20;8.15;;;5.93;;
48993;SDS011;34804;49.214;12.276;2023-05-10T10:17:49;8.27;;;5.75;;
48993;SDS011;34804;49.214;12.276;2023-05-10T10:20:17;8.57;;;4.93;;
48993;SDS011;34804;49.214;12.276;2023-05-10T10:22:46;7.25;;;5.00;;
48993;SDS011;34804;49.214;12.276;2023-05-10T10:25:14;6.82;;;4.47;;
48993;SDS011;34804;49.214;12.276;2023-05-10T10:30:25;7.30;;;5.03;;
48993;SDS011;34804;49.214;12.276;2023-05-10T10:33:05;7.93;;;4.80;;
48993;SDS011;34804;49.214;12.276;2023-05-10T10:35:54;7.93;;;5.57;;
48993;SDS011;34804;49.214;12.276;2023-05-10T10:38:24;7.68;;;4.78;;
48993;SDS011;34804;49.214;12.276;2023-05-10T10:41:01;7.18;;;4.55;;
48993;SDS011;34804;49.214;12.276;2023-05-10T10:43:29;7.45;;;5.30;;
48993;SDS011;34804;49.214;12.276;2023-05-10T10:46:12;7.20;;;4.97;;
48993;SDS011;34804;49.214;12.276;2023-05-10T10:48:41;7.50;;;5.10;;
48993;SDS011;34804;49.214;12.276;2023-05-10T10:51:15;12.65;;;7.13;;
48993;SDS011;34804;49.214;12.276;2023-05-10T10:53:42;7.68;;;5.55;;
48993;SDS011;34804;49.214;12.276;2023-05-10T10:56:10;8.38;;;4.72;;
48993;SDS011;34804;49.214;12.276;2023-05-10T10:58:40;9.20;;;5.03;;
48993;SDS011;34804;49.214;12.276;2023-05-10T11:01:11;7.55;;;4.43;;
48993;SDS011;34804;49.214;12.276;2023-05-10T11:04:27;8.80;;;5.18;;
48993;SDS011;34804;49.214;12.276;2023-05-10T11:06:32;8.65;;;5.88;;
48993;SDS011;34804;49.214;12.276;2023-05-10T11:11:48;8.77;;;5.65;;
48993;SDS011;34804;49.214;12.276;2023-05-10T11:14:19;10.63;;;5.28;;
48993;SDS011;34804;49.214;12.276;2023-05-10T11:16:47;9.07;;;5.28;;
48993;SDS011;34804;49.214;12.276;2023-05-10T11:19:15;7.18;;;4.88;;
48993;SDS011;34804;49.214;12.276;2023-05-10T11:21:47;8.98;;;5.05;;
48993;SDS011;34804;49.214;12.276;2023-05-10T11:24:37;7.78;;;4.63;;
48993;SDS011;34804;49.214;12.276;2023-05-10T11:27:04;8.93;;;4.80;;
48993;SDS011;34804;49.214;12.276;2023-05-10T11:29:31;5.97;;;4.05;;
48993;SDS011;34804;49.214;12.276;2023-05-10T11:31:58;5.78;;;3.92;;
48993;SDS011;34804;49.214;12.276;2023-05-10T11:34:26;7.18;;;4.15;;
48993;SDS011;34804;49.214;12.276;2023-05-10T11:36:56;6.75;;;4.07;;
48993;SDS011;34804;49.214;12.276;2023-05-10T11:39:27;8.05;;;4.55;;
48993;SDS011;34804;49.214;12.276;2023-05-10T11:41:55;7.05;;;4.10;;
48993;SDS011;34804;49.214;12.276;2023-05-10T11:44:23;6.57;;;3.95;;
48993;SDS011;34804;49.214;12.276;2023-05-10T11:46:51;5.55;;;3.55;;
48993;SDS011;34804;49.214;12.276;2023-05-10T11:49:18;8.05;;;4.78;;
48993;SDS011;34804;49.214;12.276;2023-05-10T11:51:47;7.90;;;4.18;;
48993;SDS011;34804;49.214;12.276;2023-05-10T11:54:14;6.90;;;4.05;;
48993;SDS011;34804;49.214;12.276;2023-05-10T11:56:41;5.75;;;3.70;;
48993;SDS011;34804;49.214;12.276;2023-05-10T11:59:08;6.47;;;3.58;;
48993;SDS011;34804;49.214;12.276;2023-05-10T12:01:36;6.07;;;3.15;;
48993;SDS011;34804;49.214;12.276;2023-05-10T12:04:03;6.68;;;3.10;;
48993;SDS011;34804;49.214;12.276;2023-05-10T12:06:31;5.20;;;3.20;;
48993;SDS011;34804;49.214;12.276;2023-05-10T12:09:06;5.60;;;3.10;;
48993;SDS011;34804;49.214;12.276;2023-05-10T12:11:36;5.28;;;2.97;;
48993;SDS011;34804;49.214;12.276;2023-05-10T12:14:09;7.40;;;3.50;;
48993;SDS011;34804;49.214;12.276;2023-05-10T12:16:36;5.28;;;3.03;;
48993;SDS011;34804;49.214;12.276;2023-05-10T12:19:03;5.63;;;3.15;;
48993;SDS011;34804;49.214;12.276;2023-05-10T12:21:32;5.65;;;2.55;;
48993;SDS011;34804;49.214;12.276;2023-05-10T12:24:00;5.13;;;2.90;;
48993;SDS011;34804;49.214;12.276;2023-05-10T12:26:29;5.95;;;3.10;;
48993;SDS011;34804;49.214;12.276;2023-05-10T12:29:12;5.50;;;3.10;;
48993;SDS011;34804;49.214;12.276;2023-05-10T12:31:52;4.68;;;3.08;;
48993;SDS011;34804;49.214;12.276;2023-05-10T12:36:52;4.15;;;2.78;;
48993;SDS011;34804;49.214;12.276;2023-05-10T12:39:19;5.43;;;2.80;;
48993;SDS011;34804;49.214;12.276;2023-05-10T12:41:46;6.70;;;3.10;;
48993;SDS011;34804;49.214;12.276;2023-05-10T12:44:14;6.97;;;3.40;;
48993;SDS011;34804;49.214;12.276;2023-05-10T12:46:41;4.28;;;2.30;;
48993;SDS011;34804;49.214;12.276;2023-05-10T12:49:08;3.25;;;1.00;;
48993;SDS011;34804;49.214;12.276;2023-05-10T12:51:35;4.07;;;1.38;;
48993;SDS011;34804;49.214;12.276;2023-05-10T12:54:02;6.38;;;1.50;;
48993;SDS011;34804;49.214;12.276;2023-05-10T12:56:29;3.88;;;1.50;;
48993;SDS011;34804;49.214;12.276;2023-05-10T12:58:56;3.25;;;1.50;;
48993;SDS011;34804;49.214;12.276;2023-05-10T13:01:23;8.43;;;1.42;;
48993;SDS011;34804;49.214;12.276;2023-05-10T13:03:50;4.47;;;1.50;;
48993;SDS011;34804;49.214;12.276;2023-05-10T13:06:17;6.32;;;1.27;;
48993;SDS011;34804;49.214;12.276;2023-05-10T13:08:43;3.92;;;1.42;;
48993;SDS011;34804;49.214;12.276;2023-05-10T13:11:10;2.13;;;1.50;;
48993;SDS011;34804;49.214;12.276;2023-05-10T13:13:37;2.45;;;1.40;;
48993;SDS011;34804;49.214;12.276;2023-05-10T13:16:04;4.00;;;1.60;;
48993;SDS011;34804;49.214;12.276;2023-05-10T13:18:31;3.72;;;1.60;;
48993;SDS011;34804;49.214;12.276;2023-05-10T13:20:58;4.78;;;1.50;;
48993;SDS011;34804;49.214;12.276;2023-05-10T13:23:25;3.80;;;1.63;;
48993;SDS011;34804;49.214;12.276;2023-05-10T13:25:51;4.22;;;1.52;;
48993;SDS011;34804;49.214;12.276;2023-05-10T13:28:18;3.40;;;1.60;;
48993;SDS011;34804;49.214;12.276;2023-05-10T13:30:45;4.53;;;1.60;;
48993;SDS011;34804;49.214;12.276;2023-05-10T13:33:12;3.65;;;1.73;;
48993;SDS011;34804;49.214;12.276;2023-05-10T13:35:39;3.63;;;1.50;;
48993;SDS011;34804;49.214;12.276;2023-05-10T13:38:06;3.67;;;1.63;;
48993;SDS011;34804;49.214;12.276;2023-05-10T13:40:34;4.03;;;1.48;;
48993;SDS011;34804;49.214;12.276;2023-05-10T13:43:02;3.65;;;1.95;;
48993;SDS011;34804;49.214;12.276;2023-05-10T13:45:28;4.80;;;2.40;;
48993;SDS011;34804;49.214;12.276;2023-05-10T13:47:55;4.95;;;2.10;;
48993;SDS011;34804;49.214;12.276;2023-05-10T13:50:22;4.38;;;2.28;;
48993;SDS011;34804;49.214;12.276;2023-05-10T13:52:49;3.85;;;1.98;;
48993;SDS011;34804;49.214;12.276;2023-05-10T13:55:16;4.45;;;1.92;;
48993;SDS011;34804;49.214;12.276;2023-05-10T13:57:43;3.10;;;1.65;;
48993;SDS011;34804;49.214;12.276;2023-05-10T14:00:10;4.00;;;1.65;;
48993;SDS011;34804;49.214;12.276;2023-05-10T14:02:37;3.92;;;1.75;;
48993;SDS011;34804;49.214;12.276;2023-05-10T14:05:04;4.25;;;2.08;;
48993;SDS011;34804;49.214;12.276;2023-05-10T14:07:31;4.03;;;1.90;;
48993;SDS011;34804;49.214;12.276;2023-05-10T14:09:58;4.25;;;2.05;;
48993;SDS011;34804;49.214;12.276;2023-05-10T14:12:25;5.68;;;2.17;;
48993;SDS011;34804;49.214;12.276;2023-05-10T14:14:52;4.55;;;2.15;;
48993;SDS011;34804;49.214;12.276;2023-05-10T14:17:18;5.50;;;2.10;;
48993;SDS011;34804;49.214;12.276;2023-05-10T14:19:46;4.72;;;2.20;;
48993;SDS011;34804;49.214;12.276;2023-05-10T14:22:13;3.20;;;1.80;;
48993;SDS011;34804;49.214;12.276;2023-05-10T14:24:40;5.00;;;2.10;;
48993;SDS011;34804;49.214;12.276;2023-05-10T14:27:06;4.82;;;2.38;;
48993;SDS011;34804;49.214;12.276;2023-05-10T14:29:33;3.90;;;2.00;;
48993;SDS011;34804;49.214;12.276;2023-05-10T14:32:00;6.20;;;1.85;;
48993;SDS011;34804;49.214;12.276;2023-05-10T14:34:27;4.57;;;2.38;;
48993;SDS011;34804;49.214;12.276;2023-05-10T14:36:54;4.72;;;2.40;;
48993;SDS011;34804;49.214;12.276;2023-05-10T14:39:22;5.05;;;2.13;;
48993;SDS011;34804;49.214;12.276;2023-05-10T14:41:49;5.75;;;2.22;;
48993;SDS011;34804;49.214;12.276;2023-05-10T14:44:17;4.90;;;2.40;;
48993;SDS011;34804;49.214;12.276;2023-05-10T14:46:44;5.45;;;3.13;;
48993;SDS011;34804;49.214;12.276;2023-05-10T14:49:11;8.88;;;3.80;;
48993;SDS011;34804;49.214;12.276;2023-05-10T14:51:38;5.57;;;3.20;;
48993;SDS011;34804;49.214;12.276;2023-05-10T14:54:05;9.10;;;5.35;;
48993;SDS011;34804;49.214;12.276;2023-05-10T14:56:32;22.25;;;12.07;;
48993;SDS011;34804;49.214;12.276;2023-05-10T14:59:01;17.33;;;10.40;;
48993;SDS011;34804;49.214;12.276;2023-05-10T15:01:30;8.23;;;4.30;;
48993;SDS011;34804;49.214;12.276;2023-05-10T15:04:00;6.97;;;3.42;;